Time;durP1;ratioP1;P1;durP2;ratioP2;P2;SDS_P1;SDS_P2;PMS_P1;PMS_P2;Temp;Humidity;BMP_temperature;BMP_pressure;BME280_temperature;BME280_humidity;BME280_pressure;Samples;Min_cycle;Max_cycle;Signal;HPM_P1;HPM_P2
2021/05/24 00:00:51;;;;;;;2.20;0.75;;;15.20;99.90;;;;;;4994647;28;20172;-78
2021/05/24 00:03:17;;;;;;;1.02;0.52;;;15.20;99.90;;;;;;4994322;28;20169;-79
2021/05/24 00:05:43;;;;;;;2.00;0.85;;;15.20;99.90;;;;;;4994695;28;20680;-79
2021/05/24 00:08:08;;;;;;;1.40;0.55;;;15.30;99.90;;;;;;4994536;28;20193;-78
2021/05/24 00:10:37;;;;;;;0.65;0.52;;;15.30;99.90;;;;;;4994424;28;20219;-78
2021/05/24 00:13:07;;;;;;;1.13;0.32;;;15.20;99.90;;;;;;4994304;28;20703;-79
2021/05/24 00:15:34;;;;;;;1.50;0.57;;;15.20;99.90;;;;;;4994273;28;20529;-78
2021/05/24 00:18:00;;;;;;;0.75;0.40;;;15.10;99.90;;;;;;5009199;28;20201;-78
2021/05/24 00:20:29;;;;;;;0.55;0.50;;;15.20;99.90;;;;;;4994101;28;20236;-79
2021/05/24 00:22:55;;;;;;;1.05;0.47;;;15.20;99.90;;;;;;4994276;28;20179;-78
2021/05/24 00:25:21;;;;;;;5.70;0.75;;;15.00;99.90;;;;;;4993969;28;20696;-80
2021/05/24 00:27:47;;;;;;;2.20;0.70;;;15.10;99.90;;;;;;4993875;28;20161;-79
2021/05/24 00:30:13;;;;;;;2.53;0.60;;;15.20;99.90;;;;;;5009114;28;20215;-79
2021/05/24 00:32:39;;;;;;;1.00;0.50;;;15.20;99.90;;;;;;4994383;28;20200;-78
2021/05/24 00:35:07;;;;;;;2.67;0.68;;;15.20;99.90;;;;;;4994114;28;20220;-78
2021/05/24 00:37:32;;;;;;;1.20;0.55;;;15.20;99.90;;;;;;5008881;28;20196;-78
2021/05/24 00:39:58;;;;;;;2.53;0.60;;;15.10;99.90;;;;;;4993852;28;20634;-80
2021/05/24 00:42:24;;;;;;;0.43;0.30;;;15.20;99.90;;;;;;5009109;28;20216;-78
2021/05/24 00:44:50;;;;;;;3.65;0.40;;;15.20;99.90;;;;;;4993720;28;20173;-78
2021/05/24 00:47:16;;;;;;;0.40;0.40;;;15.30;99.90;;;;;;4993735;28;20184;-78
2021/05/24 00:49:44;;;;;;;1.10;0.65;;;15.30;99.90;;;;;;4993487;28;20216;-78
2021/05/24 00:52:13;;;;;;;4.97;0.60;;;15.30;99.90;;;;;;4993545;28;20165;-78
2021/05/24 00:54:40;;;;;;;0.50;0.40;;;15.30;99.90;;;;;;4993574;28;20196;-78
2021/05/24 00:57:06;;;;;;;0.80;0.47;;;15.20;99.90;;;;;;4992867;28;20542;-78
2021/05/24 00:59:32;;;;;;;4.15;0.50;;;15.30;99.90;;;;;;4993020;28;20259;-78
2021/05/24 01:01:57;;;;;;;0.80;0.60;;;15.30;99.90;;;;;;4992891;28;21311;-78
2021/05/24 01:04:23;;;;;;;2.35;0.52;;;15.20;99.90;;;;;;4993497;28;20223;-79
2021/05/24 01:06:50;;;;;;;0.95;0.70;;;15.10;99.90;;;;;;4993700;28;20166;-78
2021/05/24 01:09:17;;;;;;;0.98;0.52;;;15.20;99.90;;;;;;4993103;28;20209;-79
2021/05/24 01:11:43;;;;;;;1.80;0.85;;;15.30;99.90;;;;;;4992036;28;20625;-79
2021/05/24 01:14:09;;;;;;;0.77;0.60;;;15.30;99.90;;;;;;4993501;28;20195;-78
2021/05/24 01:16:34;;;;;;;2.08;0.50;;;15.20;99.90;;;;;;4993431;28;20172;-79
2021/05/24 01:19:00;;;;;;;0.40;0.40;;;15.10;99.90;;;;;;4993286;28;20552;-78
2021/05/24 01:21:26;;;;;;;3.50;1.65;;;15.30;99.90;;;;;;4993235;28;20220;-78
2021/05/24 01:23:51;;;;;;;8.63;5.40;;;15.20;99.90;;;;;;4993214;28;20169;-78
2021/05/24 01:26:19;;;;;;;14.18;9.73;;;15.20;99.90;;;;;;4993107;28;20697;-78
2021/05/24 01:28:44;;;;;;;20.02;12.18;;;15.20;99.90;;;;;;4992578;28;20185;-78
2021/05/24 01:31:11;;;;;;;22.80;13.50;;;15.10;99.90;;;;;;4993360;28;20201;-79
2021/05/24 01:33:36;;;;;;;12.68;8.57;;;15.20;99.90;;;;;;4993110;28;20215;-79
2021/05/24 01:36:05;;;;;;;17.00;7.80;;;15.20;99.90;;;;;;4994007;28;20169;-80
2021/05/24 01:38:32;;;;;;;25.90;12.10;;;15.20;99.90;;;;;;4992854;28;20268;-79
2021/05/24 01:40:57;;;;;;;25.65;14.85;;;15.30;99.90;;;;;;4993945;28;20169;-79
2021/05/24 01:43:27;;;;;;;35.90;16.05;;;15.30;99.90;;;;;;4993475;28;20169;-79
2021/05/24 01:45:53;;;;;;;36.72;15.75;;;15.30;99.90;;;;;;4993777;28;20291;-78
2021/05/24 01:48:19;;;;;;;12.85;8.18;;;15.20;99.90;;;;;;4993401;28;20216;-78
2021/05/24 01:50:45;;;;;;;10.25;5.25;;;15.30;99.90;;;;;;4993500;28;20282;-79
2021/05/24 01:53:10;;;;;;;1.88;1.30;;;15.30;99.90;;;;;;4993393;28;20310;-79
2021/05/24 01:55:36;;;;;;;2.47;0.90;;;15.30;99.90;;;;;;4993414;28;20177;-80
2021/05/24 01:58:03;;;;;;;1.80;0.90;;;15.20;99.90;;;;;;4993096;28;20188;-79
2021/05/24 02:00:29;;;;;;;0.70;0.50;;;15.10;99.90;;;;;;4993037;28;20243;-80
2021/05/24 02:02:55;;;;;;;3.30;0.70;;;15.10;99.90;;;;;;4993427;28;20201;-79
2021/05/24 02:05:24;;;;;;;0.30;0.30;;;15.10;99.90;;;;;;4993529;28;20161;-79
2021/05/24 02:07:52;;;;;;;1.80;0.57;;;15.20;99.90;;;;;;4991594;28;20189;-79
2021/05/24 02:10:24;;;;;;;3.72;0.50;;;15.10;99.90;;;;;;4993112;28;20232;-78
2021/05/24 02:12:51;;;;;;;0.47;0.45;;;15.10;99.90;;;;;;4995542;28;20172;-78
2021/05/24 02:15:20;;;;;;;0.93;0.32;;;15.00;99.90;;;;;;4995447;28;20169;-78
2021/05/24 02:17:46;;;;;;;1.30;0.65;;;15.10;99.90;;;;;;4996366;28;20219;-79
2021/05/24 02:20:16;;;;;;;13.25;0.77;;;15.10;99.90;;;;;;4996635;28;20165;-79
2021/05/24 02:22:42;;;;;;;7.47;0.98;;;15.10;99.90;;;;;;4996595;28;20176;-79
2021/05/24 02:25:08;;;;;;;0.98;0.60;;;15.10;99.90;;;;;;5011883;28;20594;-79
2021/05/24 02:27:34;;;;;;;2.72;0.40;;;15.20;99.90;;;;;;4997762;28;20606;-78
2021/05/24 02:30:00;;;;;;;1.92;0.90;;;15.10;99.90;;;;;;5010880;28;20220;-77
2021/05/24 02:32:25;;;;;;;1.60;0.60;;;15.10;99.90;;;;;;5020166;28;20259;-78
2021/05/24 02:34:52;;;;;;;1.40;0.70;;;15.00;99.90;;;;;;5021215;28;20157;-78
2021/05/24 02:37:18;;;;;;;3.35;0.60;;;15.10;99.90;;;;;;5010054;28;20252;-79
2021/05/24 02:39:44;;;;;;;0.88;0.50;;;15.10;99.90;;;;;;4995292;28;20604;-78
2021/05/24 02:42:09;;;;;;;1.17;0.73;;;14.90;99.90;;;;;;4996396;28;20252;-78
2021/05/24 02:44:35;;;;;;;0.82;0.60;;;14.90;99.90;;;;;;4996364;28;20175;-78
2021/05/24 02:47:01;;;;;;;1.30;0.70;;;15.10;99.90;;;;;;4996060;28;20193;-79
2021/05/24 02:49:26;;;;;;;0.63;0.40;;;15.00;99.90;;;;;;4997063;28;20205;-78
2021/05/24 02:51:52;;;;;;;1.75;0.60;;;14.90;99.90;;;;;;4997304;28;20177;-78
2021/05/24 02:54:17;;;;;;;0.68;0.50;;;15.00;99.90;;;;;;4996778;28;20215;-78
2021/05/24 02:56:43;;;;;;;7.55;0.50;;;15.10;99.90;;;;;;4980441;28;20323;-78
2021/05/24 02:59:09;;;;;;;1.85;0.40;;;15.20;99.90;;;;;;4996996;28;20205;-78
2021/05/24 03:01:34;;;;;;;2.03;0.70;;;15.20;99.90;;;;;;4996150;28;20227;-80
2021/05/24 03:04:02;;;;;;;2.35;0.60;;;15.00;99.90;;;;;;4997834;28;20153;-78
2021/05/24 03:06:28;;;;;;;1.02;0.60;;;15.00;99.90;;;;;;4998328;28;20618;-78
2021/05/24 03:08:54;;;;;;;0.90;0.50;;;15.00;99.90;;;;;;4997449;28;20184;-78
2021/05/24 03:11:22;;;;;;;1.35;0.60;;;14.90;99.90;;;;;;4997518;28;20205;-77
2021/05/24 03:13:49;;;;;;;3.13;0.50;;;15.00;99.90;;;;;;4997448;28;20165;-78
2021/05/24 03:16:15;;;;;;;1.15;0.60;;;14.90;99.90;;;;;;4997344;28;20179;-78
2021/05/24 03:18:42;;;;;;;2.65;0.50;;;14.90;99.90;;;;;;4996830;28;20192;-79
2021/05/24 03:21:07;;;;;;;2.35;0.40;;;14.80;99.90;;;;;;4995868;28;20594;-78
2021/05/24 03:23:33;;;;;;;2.38;0.60;;;14.90;99.90;;;;;;4995550;28;20181;-78
2021/05/24 03:25:59;;;;;;;1.17;0.63;;;14.90;99.90;;;;;;4997647;28;20189;-78
2021/05/24 03:28:24;;;;;;;2.13;0.75;;;14.90;99.90;;;;;;4997199;28;20197;-78
2021/05/24 03:30:50;;;;;;;1.58;0.60;;;14.80;99.90;;;;;;4996059;28;20220;-78
2021/05/24 03:33:15;;;;;;;0.90;0.52;;;14.80;99.90;;;;;;4996910;28;20573;-79
2021/05/24 03:35:41;;;;;;;1.85;0.55;;;14.60;99.90;;;;;;4995307;28;20281;-78
2021/05/24 03:38:07;;;;;;;1.50;0.50;;;14.50;99.90;;;;;;4994978;28;20185;-80
2021/05/24 03:40:32;;;;;;;3.70;0.60;;;14.40;99.90;;;;;;4995466;28;20173;-79
2021/05/24 03:42:58;;;;;;;0.75;0.68;;;14.30;99.90;;;;;;4994741;28;20223;-78
2021/05/24 03:45:27;;;;;;;1.45;0.50;;;14.10;99.90;;;;;;4993520;28;20543;-78
2021/05/24 03:47:53;;;;;;;0.63;0.45;;;13.90;99.90;;;;;;4994546;28;20170;-82
2021/05/24 03:50:19;;;;;;;0.30;0.30;;;13.80;99.90;;;;;;4995027;28;20213;-78
2021/05/24 03:52:45;;;;;;;1.38;0.57;;;13.80;99.90;;;;;;4994738;28;20248;-79
2021/05/24 03:55:17;;;;;;;3.10;0.40;;;13.60;99.90;;;;;;4994480;28;20216;-79
2021/05/24 03:57:43;;;;;;;0.35;0.35;;;13.60;99.90;;;;;;4994389;28;20220;-81
2021/05/24 04:00:11;;;;;;;0.95;0.38;;;13.60;99.90;;;;;;4994355;28;20271;-78
2021/05/24 04:02:36;;;;;;;0.65;0.60;;;13.60;99.90;;;;;;4993404;28;20219;-82
2021/05/24 04:05:11;;;;;;;0.60;0.50;;;13.70;99.90;;;;;;4994517;28;20544;-80
2021/05/24 04:07:37;;;;;;;0.50;0.50;;;13.60;99.90;;;;;;4993316;28;20207;-78
2021/05/24 04:10:03;;;;;;;3.20;0.75;;;13.50;99.90;;;;;;4994446;28;20247;-79
2021/05/24 04:12:29;;;;;;;4.18;0.50;;;13.30;99.90;;;;;;4994192;28;20165;-78
2021/05/24 04:14:56;;;;;;;1.08;0.60;;;13.30;99.90;;;;;;4994032;28;20538;-78
2021/05/24 04:17:23;;;;;;;0.90;0.90;;;13.20;99.90;;;;;;4994376;28;20162;-80
2021/05/24 04:19:50;;;;;;;2.58;1.25;;;13.10;99.90;;;;;;4994538;28;20220;-78
2021/05/24 04:22:15;;;;;;;3.58;1.05;;;13.10;99.90;;;;;;4994347;28;20232;-82
2021/05/24 04:24:41;;;;;;;2.58;1.10;;;13.20;99.90;;;;;;4994240;28;20227;-81
2021/05/24 04:27:07;;;;;;;0.52;0.52;;;13.10;99.90;;;;;;4994265;28;20157;-79
2021/05/24 04:29:32;;;;;;;0.60;0.60;;;13.10;99.90;;;;;;4993875;28;20204;-82
2021/05/24 04:31:58;;;;;;;1.58;0.60;;;13.10;99.90;;;;;;4993197;28;20173;-81
2021/05/24 04:34:24;;;;;;;0.75;0.63;;;13.20;99.90;;;;;;4994291;28;20247;-83
2021/05/24 04:36:49;;;;;;;1.98;0.60;;;13.30;99.90;;;;;;4993663;28;20169;-83
2021/05/24 04:39:15;;;;;;;2.22;0.70;;;13.30;99.90;;;;;;4996128;28;20193;-84
2021/05/24 04:41:40;;;;;;;0.50;0.50;;;13.20;99.90;;;;;;5002174;28;20179;-82
2021/05/24 04:44:19;;;;;;;0.75;0.60;;;13.30;99.90;;;;;;5001408;28;20161;-79
2021/05/24 04:46:45;;;;;;;0.40;0.40;;;13.20;99.90;;;;;;4995671;28;20255;-82
2021/05/24 04:49:11;;;;;;;1.00;0.57;;;13.30;99.90;;;;;;4994661;28;20228;-81
2021/05/24 04:51:37;;;;;;;4.22;0.60;;;13.30;99.90;;;;;;4994442;28;20216;-83
2021/05/24 04:54:04;;;;;;;0.38;0.38;;;13.50;99.90;;;;;;4994533;28;20583;-79
2021/05/24 04:56:30;;;;;;;3.15;0.60;;;13.30;99.90;;;;;;4994834;28;20173;-83
2021/05/24 04:58:55;;;;;;;0.70;0.63;;;13.50;99.90;;;;;;4996287;28;20205;-82
2021/05/24 05:01:22;;;;;;;1.77;0.70;;;13.30;99.90;;;;;;4999191;28;20169;-82
2021/05/24 05:03:47;;;;;;;4.20;0.50;;;13.30;99.90;;;;;;4992852;28;20187;-83
2021/05/24 05:06:13;;;;;;;0.60;0.60;;;13.30;99.90;;;;;;4995693;28;20177;-84
2021/05/24 05:08:38;;;;;;;2.40;0.40;;;13.30;99.90;;;;;;4996913;28;20192;-82
2021/05/24 05:11:04;;;;;;;1.27;0.60;;;13.20;99.90;;;;;;4996862;28;20268;-80
2021/05/24 05:13:31;;;;;;;1.05;0.80;;;13.10;99.90;;;;;;4995437;28;20169;-83
2021/05/24 05:15:56;;;;;;;1.98;0.57;;;13.20;99.90;;;;;;4996492;28;20180;-82
2021/05/24 05:18:22;;;;;;;0.85;0.60;;;13.10;99.90;;;;;;4995383;28;20196;-84
2021/05/24 05:20:47;;;;;;;1.90;0.40;;;13.20;99.90;;;;;;4998048;28;20195;-84
2021/05/24 05:23:13;;;;;;;1.33;0.50;;;13.20;99.90;;;;;;5001748;28;20176;-79
2021/05/24 05:25:38;;;;;;;0.52;0.40;;;13.20;99.90;;;;;;5019221;28;20177;-82
2021/05/24 05:28:04;;;;;;;0.55;0.55;;;13.10;99.90;;;;;;5016818;28;20185;-83
2021/05/24 05:30:30;;;;;;;1.83;0.63;;;13.00;99.90;;;;;;5015726;28;20200;-84
2021/05/24 05:32:55;;;;;;;2.22;0.60;;;13.00;99.90;;;;;;4995178;28;20531;-82
2021/05/24 05:35:21;;;;;;;1.30;0.60;;;13.00;99.90;;;;;;4994195;28;20169;-81
2021/05/24 05:37:50;;;;;;;5.90;0.95;;;13.00;99.90;;;;;;4995823;28;20177;-81
2021/05/24 05:40:17;;;;;;;3.38;0.50;;;12.80;99.90;;;;;;4996033;28;20185;-81
2021/05/24 05:42:44;;;;;;;0.82;0.60;;;12.80;99.90;;;;;;4993586;28;20303;-79
2021/05/24 05:45:15;;;;;;;1.05;0.47;;;12.60;99.90;;;;;;4992586;28;20550;-80
2021/05/24 05:47:41;;;;;;;3.80;0.63;;;12.80;99.90;;;;;;4997629;28;20169;-80
2021/05/24 05:50:07;;;;;;;1.63;0.60;;;12.90;99.90;;;;;;4997957;28;20264;-79
2021/05/24 05:52:34;;;;;;;0.77;0.60;;;13.00;99.90;;;;;;4996005;28;20227;-81
2021/05/24 05:55:01;;;;;;;1.45;0.55;;;13.00;99.90;;;;;;4997768;28;20173;-81
2021/05/24 05:57:26;;;;;;;2.92;0.60;;;13.10;99.90;;;;;;4997650;28;20167;-80
2021/05/24 05:59:53;;;;;;;0.40;0.40;;;13.20;99.90;;;;;;4997201;28;20295;-81
2021/05/24 06:02:19;;;;;;;1.15;0.60;;;13.10;99.90;;;;;;4996395;28;20185;-83
2021/05/24 06:04:44;;;;;;;0.90;0.60;;;13.10;99.90;;;;;;4998529;28;20166;-81
2021/05/24 06:07:10;;;;;;;0.43;0.40;;;13.00;99.90;;;;;;4997223;28;20265;-82
2021/05/24 06:09:35;;;;;;;2.55;0.50;;;13.10;99.90;;;;;;4997381;28;20224;-80
2021/05/24 06:12:01;;;;;;;0.40;0.40;;;13.10;99.90;;;;;;4997502;28;20188;-84
2021/05/24 06:14:27;;;;;;;3.13;0.70;;;12.90;99.90;;;;;;4997616;28;20689;-84
2021/05/24 06:16:52;;;;;;;6.05;0.90;;;13.00;99.90;;;;;;5028597;28;20209;-82
2021/05/24 06:19:18;;;;;;;1.08;0.65;;;13.00;99.90;;;;;;4997552;28;20196;-85
2021/05/24 06:21:44;;;;;;;0.50;0.50;;;13.20;99.90;;;;;;4991479;28;20196;-86
2021/05/24 06:24:09;;;;;;;2.15;1.40;;;13.10;99.90;;;;;;4997916;28;20534;-86
2021/05/24 06:26:35;;;;;;;1.05;0.60;;;12.90;99.90;;;;;;5013330;28;20169;-82
2021/05/24 06:29:01;;;;;;;1.90;0.60;;;13.10;99.90;;;;;;4998141;28;20561;-80
2021/05/24 06:31:27;;;;;;;4.63;1.13;;;13.00;99.90;;;;;;5013024;28;20768;-80
2021/05/24 06:33:53;;;;;;;2.00;0.88;;;12.90;99.90;;;;;;4998019;28;20180;-80
2021/05/24 06:36:18;;;;;;;1.25;0.50;;;13.10;99.90;;;;;;4999795;28;20256;-80
2021/05/24 06:38:44;;;;;;;0.77;0.60;;;13.10;99.90;;;;;;5012736;28;20557;-79
2021/05/24 06:41:10;;;;;;;3.15;0.50;;;13.00;99.90;;;;;;4999133;28;20187;-83
2021/05/24 06:43:36;;;;;;;0.73;0.50;;;13.00;99.90;;;;;;5013193;28;20538;-83
2021/05/24 06:46:01;;;;;;;3.13;0.57;;;13.00;99.90;;;;;;4997013;28;20180;-82
2021/05/24 06:48:27;;;;;;;4.57;1.20;;;13.00;99.90;;;;;;4996468;28;20561;-81
2021/05/24 06:50:52;;;;;;;4.40;0.90;;;13.00;99.90;;;;;;4996505;28;20204;-80
2021/05/24 06:53:18;;;;;;;1.05;0.75;;;12.90;99.90;;;;;;4996297;28;20191;-82
2021/05/24 06:55:43;;;;;;;0.40;0.40;;;12.60;99.90;;;;;;4997565;28;20251;-81
2021/05/24 06:58:09;;;;;;;4.70;0.88;;;12.60;99.90;;;;;;4995779;28;20725;-85
2021/05/24 07:00:35;;;;;;;5.78;1.00;;;12.60;99.90;;;;;;4996080;28;20173;-87
2021/05/24 07:03:01;;;;;;;2.13;0.70;;;12.70;99.90;;;;;;4980034;28;20180;-80
2021/05/24 07:05:27;;;;;;;11.88;1.00;;;12.40;99.90;;;;;;4986922;28;20542;-79
2021/05/24 07:07:52;;;;;;;21.48;2.92;;;12.30;99.90;;;;;;4994541;28;20177;-80
2021/05/24 07:10:18;;;;;;;18.42;2.90;;;12.20;99.90;;;;;;4976798;28;20209;-79
2021/05/24 07:12:44;;;;;;;15.25;1.88;;;12.10;99.90;;;;;;4976147;28;20173;-79
2021/05/24 07:15:10;;;;;;;13.85;1.75;;;12.30;99.90;;;;;;4994921;28;20633;-80
2021/05/24 07:17:35;;;;;;;8.73;1.92;;;12.40;99.90;;;;;;4994399;28;20629;-78
2021/05/24 07:20:03;;;;;;;2.95;0.80;;;12.50;99.90;;;;;;4994395;28;20223;-80
2021/05/24 07:22:29;;;;;;;2.15;0.93;;;12.60;99.90;;;;;;4994522;28;20252;-81
2021/05/24 07:24:54;;;;;;;1.92;0.63;;;12.70;99.90;;;;;;4994891;28;20241;-79
2021/05/24 07:27:21;;;;;;;2.50;0.80;;;12.60;99.90;;;;;;4995322;28;20177;-79
2021/05/24 07:29:46;;;;;;;1.67;0.55;;;12.30;99.90;;;;;;4994470;28;20213;-79
2021/05/24 07:32:12;;;;;;;1.50;0.80;;;12.30;99.90;;;;;;4995342;28;20170;-80
2021/05/24 07:34:38;;;;;;;1.13;0.65;;;12.30;99.90;;;;;;4993400;28;20291;-80
2021/05/24 07:37:04;;;;;;;2.97;0.90;;;12.30;99.90;;;;;;4994468;28;20177;-82
2021/05/24 07:39:31;;;;;;;1.15;1.02;;;12.50;99.90;;;;;;4994265;28;20193;-80
2021/05/24 07:42:00;;;;;;;3.38;1.00;;;12.60;99.90;;;;;;4994185;28;20172;-83
2021/05/24 07:44:30;;;;;;;2.90;1.00;;;12.80;99.90;;;;;;4994540;28;20165;-80
2021/05/24 07:46:57;;;;;;;3.28;1.25;;;12.70;99.90;;;;;;4993426;28;20224;-83
2021/05/24 07:49:23;;;;;;;1.63;0.70;;;12.70;99.90;;;;;;4985441;28;20193;-79
2021/05/24 07:51:49;;;;;;;1.60;0.70;;;12.70;99.90;;;;;;4974503;28;20697;-80
2021/05/24 07:54:15;;;;;;;2.60;0.80;;;12.80;99.90;;;;;;4980203;28;20180;-78
2021/05/24 07:56:41;;;;;;;4.75;0.88;;;13.10;99.90;;;;;;5009213;28;20166;-81
2021/05/24 07:59:07;;;;;;;2.63;0.82;;;13.30;99.90;;;;;;4994503;28;20639;-79
2021/05/24 08:01:32;;;;;;;6.32;0.90;;;13.40;99.90;;;;;;4994044;28;20185;-81
2021/05/24 08:03:58;;;;;;;1.17;0.95;;;13.30;99.90;;;;;;4989356;28;20635;-80
2021/05/24 08:06:23;;;;;;;0.90;0.70;;;13.50;99.90;;;;;;4975226;28;20177;-81
2021/05/24 08:08:49;;;;;;;0.82;0.50;;;13.40;99.90;;;;;;4974912;28;20551;-80
2021/05/24 08:11:15;;;;;;;1.13;0.80;;;13.40;99.90;;;;;;4975158;28;20220;-78
2021/05/24 08:13:41;;;;;;;2.15;1.00;;;13.40;99.90;;;;;;4995342;28;20185;-81
2021/05/24 08:16:12;;;;;;;1.75;0.63;;;13.30;99.90;;;;;;4991995;28;20143;-81
2021/05/24 08:18:38;;;;;;;0.63;0.63;;;13.30;99.90;;;;;;5001713;28;20219;-81
2021/05/24 08:21:04;;;;;;;4.00;0.63;;;13.10;99.90;;;;;;5013587;28;21828;-80
2021/05/24 08:23:30;;;;;;;3.10;1.10;;;13.30;99.90;;;;;;4998439;28;20533;-79
2021/05/24 08:25:56;;;;;;;0.75;0.60;;;13.40;99.90;;;;;;4993878;28;20169;-81
2021/05/24 08:28:21;;;;;;;2.85;1.10;;;13.40;99.90;;;;;;4993901;28;20216;-83
2021/05/24 08:30:47;;;;;;;1.10;0.70;;;13.50;99.90;;;;;;4991966;28;20223;-82
2021/05/24 08:33:12;;;;;;;2.13;0.93;;;13.30;99.90;;;;;;4990292;28;20201;-80
2021/05/24 08:35:38;;;;;;;0.70;0.70;;;13.20;99.90;;;;;;4988179;28;20672;-78
2021/05/24 08:38:03;;;;;;;1.20;0.80;;;13.30;99.90;;;;;;4992968;28;20196;-79
2021/05/24 08:40:29;;;;;;;1.38;0.70;;;13.50;99.90;;;;;;4990920;28;20181;-79
2021/05/24 08:42:57;;;;;;;4.47;1.73;;;13.50;99.90;;;;;;4992934;28;20196;-81
2021/05/24 08:45:24;;;;;;;1.63;1.25;;;13.50;99.90;;;;;;4977337;28;20174;-81
2021/05/24 08:47:50;;;;;;;0.63;0.60;;;13.50;99.90;;;;;;4975654;28;20174;-80
2021/05/24 08:50:16;;;;;;;1.55;0.60;;;13.60;99.90;;;;;;4973576;28;20292;-80
2021/05/24 08:52:42;;;;;;;1.00;0.77;;;13.40;99.90;;;;;;4990502;28;20263;-79
2021/05/24 08:55:10;;;;;;;2.35;0.80;;;13.40;99.90;;;;;;4991821;28;20189;-79
2021/05/24 08:57:38;;;;;;;5.43;0.68;;;13.50;99.90;;;;;;4992841;28;20180;-80
2021/05/24 09:00:06;;;;;;;1.20;0.95;;;13.70;99.90;;;;;;4992369;28;20185;-81
2021/05/24 09:02:32;;;;;;;0.60;0.60;;;14.00;99.90;;;;;;4976911;28;20220;-80
2021/05/24 09:05:04;;;;;;;1.05;0.90;;;14.00;99.90;;;;;;4984775;28;20177;-78
2021/05/24 09:07:29;;;;;;;0.73;0.73;;;14.00;99.90;;;;;;4991807;28;20170;-81
2021/05/24 09:10:04;;;;;;;1.40;0.85;;;14.00;99.90;;;;;;4991990;28;20216;-79
2021/05/24 09:12:33;;;;;;;2.58;0.98;;;14.20;99.90;;;;;;4986586;28;20165;-79
2021/05/24 09:15:03;;;;;;;0.60;0.50;;;14.50;99.90;;;;;;4985364;28;20177;-79
2021/05/24 09:17:54;;;;;;;2.85;0.70;;;14.60;99.90;;;;;;4993040;28;20165;-79
2021/05/24 09:20:20;;;;;;;0.77;0.70;;;15.30;99.90;;;;;;4993003;28;20166;-81
2021/05/24 09:23:13;;;;;;;1.45;0.98;;;15.90;99.90;;;;;;4977331;28;20185;-81
2021/05/24 09:25:52;;;;;;;0.95;0.70;;;15.80;99.90;;;;;;4972468;28;20185;-80
2021/05/24 09:28:35;;;;;;;1.27;0.98;;;16.00;99.90;;;;;;4989584;28;20201;-82
2021/05/24 09:31:11;;;;;;;1.42;0.90;;;16.10;99.90;;;;;;4992473;28;20213;-80
2021/05/24 09:33:59;;;;;;;1.55;0.80;;;15.60;99.90;;;;;;4990584;28;20169;-80
2021/05/24 09:36:27;;;;;;;2.70;0.60;;;15.10;99.90;;;;;;4972179;28;20294;-79
2021/05/24 09:38:58;;;;;;;0.50;0.50;;;15.20;99.90;;;;;;4986381;28;20189;-81
2021/05/24 09:41:24;;;;;;;0.50;0.50;;;15.20;99.90;;;;;;4992006;28;20196;-81
2021/05/24 09:43:52;;;;;;;1.38;0.70;;;15.20;99.90;;;;;;4989862;28;20228;-79
2021/05/24 09:46:25;;;;;;;1.17;0.60;;;15.00;99.90;;;;;;4973022;28;20162;-80
2021/05/24 09:49:01;;;;;;;0.60;0.60;;;15.10;99.90;;;;;;4976787;28;20201;-82
2021/05/24 09:51:30;;;;;;;0.85;0.63;;;14.80;99.90;;;;;;4973125;28;20209;-82
2021/05/24 09:53:57;;;;;;;1.63;0.80;;;15.00;99.90;;;;;;4986720;28;20223;-80
2021/05/24 09:56:22;;;;;;;0.52;0.52;;;14.90;99.90;;;;;;4992334;28;20394;-80
2021/05/24 09:58:59;;;;;;;1.48;0.65;;;15.20;99.90;;;;;;4983319;28;20244;-80
2021/05/24 10:01:31;;;;;;;0.70;0.70;;;15.20;99.90;;;;;;4973722;28;20335;-79
2021/05/24 10:03:58;;;;;;;0.60;0.60;;;15.50;99.90;;;;;;4991101;28;20162;-81
2021/05/24 10:06:24;;;;;;;1.38;0.55;;;15.80;99.90;;;;;;4992553;28;20641;-80
2021/05/24 10:08:51;;;;;;;0.85;0.57;;;15.90;99.90;;;;;;4985435;28;20209;-83
2021/05/24 10:11:16;;;;;;;1.33;0.75;;;15.70;99.90;;;;;;4972349;28;20233;-78
2021/05/24 10:13:43;;;;;;;2.30;0.90;;;15.60;99.90;;;;;;4972063;28;20202;-79
2021/05/24 10:16:12;;;;;;;1.40;0.70;;;15.40;99.90;;;;;;4971098;28;20229;-80
2021/05/24 10:18:39;;;;;;;0.77;0.70;;;15.30;99.90;;;;;;4973647;28;20194;-78
2021/05/24 10:21:05;;;;;;;0.70;0.70;;;15.00;99.90;;;;;;4991830;28;20514;-82
2021/05/24 10:23:32;;;;;;;1.38;0.70;;;15.30;99.90;;;;;;4991477;28;20193;-81
2021/05/24 10:26:01;;;;;;;0.70;0.70;;;15.40;99.90;;;;;;4991969;28;20644;-80
2021/05/24 10:28:28;;;;;;;0.82;0.80;;;15.50;99.90;;;;;;5006652;28;20193;-82
2021/05/24 10:30:56;;;;;;;1.27;0.88;;;15.20;99.90;;;;;;4990941;28;20248;-80
2021/05/24 10:33:25;;;;;;;1.55;1.10;;;15.30;99.90;;;;;;4993843;28;20540;-79
2021/05/24 10:35:52;;;;;;;0.98;0.90;;;15.40;99.90;;;;;;4995072;28;20173;-80
2021/05/24 10:38:31;;;;;;;0.82;0.80;;;15.30;99.90;;;;;;4991379;28;20189;-80
2021/05/24 10:41:12;;;;;;;0.90;0.90;;;15.40;99.90;;;;;;4974988;28;20700;-80
2021/05/24 10:43:42;;;;;;;1.35;1.05;;;15.40;99.90;;;;;;4976253;28;20177;-80
2021/05/24 10:46:26;;;;;;;1.17;1.05;;;15.40;99.90;;;;;;4976126;28;20178;-81
2021/05/24 10:48:56;;;;;;;2.85;0.70;;;15.70;99.90;;;;;;4983848;28;20204;-83
2021/05/24 10:51:42;;;;;;;1.10;1.00;;;15.50;99.90;;;;;;4995779;28;20213;-81
2021/05/24 10:54:08;;;;;;;1.60;0.90;;;15.50;99.90;;;;;;4994770;28;20260;-80
2021/05/24 10:56:33;;;;;;;3.95;0.80;;;15.40;99.90;;;;;;4996008;28;20791;-80
2021/05/24 10:58:59;;;;;;;1.75;0.88;;;15.40;99.90;;;;;;4994061;28;20223;-80
2021/05/24 11:01:25;;;;;;;2.65;1.08;;;15.20;99.90;;;;;;4995333;28;20176;-80
2021/05/24 11:04:09;;;;;;;1.35;1.10;;;15.40;99.90;;;;;;4999567;28;20684;-80
2021/05/24 11:06:34;;;;;;;1.38;0.80;;;15.50;99.90;;;;;;5017864;28;20145;-79
2021/05/24 11:09:04;;;;;;;1.27;0.70;;;15.70;99.90;;;;;;5015627;28;20185;-80
2021/05/24 11:11:32;;;;;;;1.08;0.95;;;16.00;99.90;;;;;;5011425;28;20303;-79
2021/05/24 11:14:09;;;;;;;1.20;0.93;;;16.40;99.90;;;;;;4996928;28;20165;-79
2021/05/24 11:16:36;;;;;;;1.02;0.88;;;16.50;99.90;;;;;;4995066;28;20181;-78
2021/05/24 11:19:10;;;;;;;2.25;1.30;;;16.60;99.90;;;;;;4995728;28;20209;-80
2021/05/24 11:21:37;;;;;;;0.93;0.70;;;16.70;99.90;;;;;;4995461;28;20284;-78
2021/05/24 11:27:09;;;;;;;1.00;0.90;;;16.60;99.90;;;;;;4998036;28;20576;-83
2021/05/24 11:29:34;;;;;;;1.00;0.70;;;16.70;99.90;;;;;;4995343;28;20299;-82
2021/05/24 11:32:17;;;;;;;0.60;0.57;;;16.90;99.90;;;;;;4995290;28;20177;-82
2021/05/24 11:34:42;;;;;;;1.70;0.77;;;17.00;99.90;;;;;;4995138;28;20165;-83
2021/05/24 11:37:09;;;;;;;2.72;0.85;;;16.90;99.90;;;;;;4995478;28;20195;-80
2021/05/24 11:39:46;;;;;;;2.05;0.93;;;16.50;99.90;;;;;;4995652;28;20264;-82
2021/05/24 11:42:24;;;;;;;1.05;0.73;;;16.40;99.90;;;;;;4995751;28;20169;-81
2021/05/24 11:44:50;;;;;;;2.05;0.82;;;16.70;99.90;;;;;;4994541;28;20568;-81
2021/05/24 11:47:24;;;;;;;0.85;0.85;;;17.00;99.90;;;;;;4995553;28;20157;-81
2021/05/24 11:49:53;;;;;;;1.05;0.90;;;16.80;99.90;;;;;;4996165;28;20658;-82
2021/05/24 11:52:24;;;;;;;1.52;1.00;;;16.70;99.90;;;;;;4995682;28;20158;-82
2021/05/24 11:54:51;;;;;;;0.98;0.60;;;16.90;99.90;;;;;;4994257;28;20181;-81
2021/05/24 11:57:22;;;;;;;1.25;1.15;;;16.90;99.90;;;;;;4995346;28;20216;-82
2021/05/24 11:59:50;;;;;;;1.38;1.00;;;16.80;99.90;;;;;;4994351;28;20561;-81
2021/05/24 12:02:18;;;;;;;5.05;1.00;;;16.50;99.90;;;;;;4991047;28;20184;-79
2021/05/24 12:04:47;;;;;;;2.63;1.20;;;16.70;99.90;;;;;;4978856;28;20177;-78
2021/05/24 12:07:19;;;;;;;2.08;1.10;;;17.00;99.90;;;;;;4974120;28;20314;-81
2021/05/24 12:09:53;;;;;;;2.97;1.13;;;17.30;99.90;;;;;;4993338;28;20227;-82
2021/05/24 12:12:23;;;;;;;1.13;0.82;;;17.10;99.90;;;;;;4994928;28;20541;-82
2021/05/24 12:14:54;;;;;;;2.78;0.88;;;17.00;99.90;;;;;;4993632;28;20585;-81
2021/05/24 12:17:38;;;;;;;1.08;0.80;;;17.00;99.90;;;;;;4993880;28;20177;-82
2021/05/24 12:20:07;;;;;;;2.95;0.90;;;16.90;99.90;;;;;;4993892;28;20168;-79
2021/05/24 12:22:41;;;;;;;21.00;2.58;;;17.00;99.90;;;;;;4993776;28;20261;-80
2021/05/24 12:25:10;;;;;;;1.27;0.80;;;16.90;99.90;;;;;;4994218;28;20645;-82
2021/05/24 12:27:36;;;;;;;2.08;0.90;;;17.00;99.90;;;;;;4993212;28;20169;-80
2021/05/24 12:30:17;;;;;;;3.67;1.00;;;17.20;99.90;;;;;;4992102;28;20220;-81
2021/05/24 12:32:49;;;;;;;5.05;1.10;;;17.20;99.90;;;;;;4992664;28;20187;-82
2021/05/24 12:35:30;;;;;;;2.58;1.10;;;17.10;99.90;;;;;;4992947;28;20165;-81
2021/05/24 12:38:15;;;;;;;7.65;1.38;;;17.30;99.90;;;;;;4992688;28;20212;-82
2021/05/24 12:40:44;;;;;;;12.13;1.35;;;17.30;99.90;;;;;;4992906;28;20181;-81
2021/05/24 12:43:10;;;;;;;1.65;0.98;;;17.40;99.90;;;;;;4991324;28;20235;-80
2021/05/24 12:45:36;;;;;;;2.03;1.15;;;17.30;99.90;;;;;;4992569;28;20209;-82
2021/05/24 12:48:25;;;;;;;1.48;1.20;;;17.20;99.90;;;;;;4993020;28;20189;-81
2021/05/24 12:50:50;;;;;;;1.92;0.85;;;17.20;99.90;;;;;;4991640;28;20677;-81